createdAt,value
2022-11-18T00:00:31.830Z,97.28
2022-11-18T00:01:32.680Z,97.28
2022-11-18T00:02:33.578Z,97.28
2022-11-18T00:03:34.380Z,97.17
2022-11-18T00:04:35.233Z,97.17
2022-11-18T00:05:36.329Z,97.13
2022-11-18T00:06:36.696Z,97.17
2022-11-18T00:07:37.644Z,97.28
2022-11-18T00:08:38.497Z,97.38
2022-11-18T00:09:39.360Z,97.28
2022-11-18T00:10:40.326Z,97.38
2022-11-18T00:11:41.236Z,97.38
2022-11-18T00:12:42.018Z,97.38
2022-11-18T00:13:42.868Z,97.28
2022-11-18T00:14:43.715Z,97.13
2022-11-18T00:15:44.576Z,97.03
2022-11-18T00:16:45.429Z,97.03
2022-11-18T00:17:46.293Z,97.07
2022-11-18T00:18:47.143Z,97.07
2022-11-18T00:19:47.996Z,97.03
2022-11-18T00:20:48.857Z,96.92
2022-11-18T00:21:49.728Z,96.92
2022-11-18T00:22:50.555Z,97.03
2022-11-18T00:23:51.406Z,96.92
2022-11-18T00:24:52.284Z,96.82
2022-11-18T00:25:53.143Z,96.72
2022-11-18T00:26:54.022Z,96.62
2022-11-18T00:27:54.837Z,96.62
2022-11-18T00:28:55.712Z,96.62
2022-11-18T00:29:56.560Z,96.62
2022-11-18T00:30:57.824Z,96.62
2022-11-18T00:31:58.185Z,96.62
2022-11-18T00:32:59.038Z,96.51
2022-11-18T00:33:59.905Z,96.62
2022-11-18T00:35:00.758Z,96.51
2022-11-18T00:36:01.622Z,96.51
2022-11-18T00:37:02.499Z,96.51
2022-11-18T00:38:03.326Z,96.41
2022-11-18T00:39:04.176Z,96.51
2022-11-18T00:40:05.032Z,96.51
2022-11-18T00:41:05.885Z,96.51
2022-11-18T00:42:06.883Z,96.41
2022-11-18T00:43:07.648Z,96.20
2022-11-18T00:44:09.710Z,96.26
2022-11-18T00:45:09.049Z,96.10
2022-11-18T00:46:09.913Z,96.06
2022-11-18T00:47:10.758Z,96.06
2022-11-18T00:48:11.607Z,96.06
2022-11-18T00:49:12.458Z,96.06
2022-11-18T00:50:13.306Z,95.95
2022-11-18T00:51:14.165Z,95.95
2022-11-18T00:52:15.030Z,95.86
2022-11-18T00:53:15.863Z,95.95
2022-11-18T00:54:16.712Z,95.86
2022-11-18T00:55:17.564Z,95.86
2022-11-18T00:56:18.433Z,96.06
2022-11-18T00:57:19.297Z,95.95
2022-11-18T00:58:20.130Z,95.95
2022-11-18T00:59:21.275Z,96.16
2022-11-18T01:00:21.689Z,96.06
2022-11-18T01:01:22.570Z,96.16
2022-11-18T01:02:23.398Z,96.16
2022-11-18T01:03:24.252Z,96.06
2022-11-18T01:04:25.103Z,96.26
2022-11-18T01:05:25.955Z,96.26
2022-11-18T01:06:26.821Z,96.26
2022-11-18T01:07:27.771Z,96.37
2022-11-18T01:08:28.603Z,96.26
2022-11-18T01:09:29.453Z,96.37
2022-11-18T01:10:30.322Z,96.31
2022-11-18T01:11:31.321Z,96.51
2022-11-18T01:12:31.686Z,96.41
2022-11-18T01:13:32.496Z,96.41
2022-11-18T01:14:33.346Z,96.62
2022-11-18T01:15:34.205Z,96.62
2022-11-18T01:16:35.320Z,96.82
2022-11-18T01:17:35.672Z,96.92
2022-11-18T01:18:36.551Z,96.82
2022-11-18T01:19:37.436Z,96.82
2022-11-18T01:20:38.290Z,96.72
2022-11-18T01:21:39.320Z,96.47
2022-11-18T01:22:39.699Z,96.47
2022-11-18T01:23:40.538Z,96.37
2022-11-18T01:24:41.395Z,96.37
2022-11-18T01:25:42.261Z,96.26
2022-11-18T01:26:43.122Z,96.47
2022-11-18T01:27:43.987Z,96.37
2022-11-18T01:28:44.776Z,96.37
2022-11-18T01:29:45.627Z,96.37
2022-11-18T01:30:46.479Z,96.26
2022-11-18T01:32:16.903Z,96.47
2022-11-18T01:32:49.085Z,96.47
2022-11-18T01:33:48.936Z,96.57
2022-11-18T01:34:49.794Z,96.47
2022-11-18T01:35:50.649Z,96.47
2022-11-18T01:36:51.509Z,96.26
2022-11-18T01:37:52.425Z,96.37
2022-11-18T01:38:53.234Z,96.57
2022-11-18T01:39:54.157Z,96.57
2022-11-18T01:40:55.021Z,96.57
2022-11-18T01:41:55.882Z,96.78
2022-11-18T01:42:56.751Z,96.67
2022-11-18T01:43:57.550Z,96.78
2022-11-18T01:44:58.411Z,96.82
2022-11-18T01:45:59.257Z,96.82
2022-11-18T01:47:00.116Z,96.92
2022-11-18T01:48:00.966Z,96.78
2022-11-18T01:49:01.817Z,96.62
2022-11-18T01:50:02.668Z,96.72
2022-11-18T01:51:03.536Z,96.47
2022-11-18T01:52:04.392Z,96.47
2022-11-18T01:53:05.281Z,96.57
2022-11-18T01:54:06.134Z,96.47
2022-11-18T01:55:06.987Z,96.47
2022-11-18T01:56:07.838Z,96.67
2022-11-18T01:57:08.719Z,96.67
2022-11-18T01:58:09.605Z,96.62
2022-11-18T01:59:10.418Z,96.72
2022-11-18T02:00:11.265Z,96.72
2022-11-18T02:01:12.187Z,96.37
2022-11-18T02:02:12.984Z,96.47
2022-11-18T02:03:13.833Z,96.26
2022-11-18T02:04:14.698Z,96.26
2022-11-18T02:05:15.550Z,96.16
2022-11-18T02:06:16.400Z,96.37
2022-11-18T02:07:17.310Z,97.08
2022-11-18T02:08:18.130Z,96.98
2022-11-18T02:09:19.299Z,97.60
2022-11-18T02:10:19.712Z,98.32
2022-11-18T02:11:20.560Z,98.52
2022-11-18T02:12:21.875Z,98.52
2022-11-18T02:13:22.185Z,98.97
2022-11-18T02:14:22.973Z,99.99
2022-11-18T02:15:23.822Z,99.99
2022-11-18T02:16:24.673Z,99.99
2022-11-18T02:17:25.539Z,99.99
2022-11-18T02:18:26.399Z,99.99
2022-11-18T02:19:27.250Z,99.99
2022-11-18T02:20:28.111Z,99.99
2022-11-18T02:21:28.957Z,99.99
2022-11-18T02:22:29.823Z,99.99
2022-11-18T02:23:30.702Z,99.99
2022-11-18T02:24:31.536Z,99.99
2022-11-18T02:25:32.385Z,99.99
2022-11-18T02:26:33.236Z,99.99
2022-11-18T02:27:34.318Z,99.99
2022-11-18T02:28:34.698Z,99.99
2022-11-18T02:29:35.531Z,99.99
2022-11-18T02:30:36.394Z,99.99
2022-11-18T02:31:37.238Z,99.99
2022-11-18T02:32:38.314Z,99.99
2022-11-18T02:33:38.668Z,99.99
2022-11-18T02:34:39.530Z,99.99
2022-11-18T02:35:40.377Z,98.76
2022-11-18T02:36:41.241Z,99.99
2022-11-18T02:37:42.089Z,99.99
2022-11-18T02:38:42.969Z,97.83
2022-11-18T02:39:43.812Z,99.99
2022-11-18T02:40:44.660Z,99.99
2022-11-18T02:41:45.513Z,99.99
2022-11-18T02:42:46.377Z,99.99
2022-11-18T02:43:47.248Z,99.99
2022-11-18T02:44:48.107Z,99.99
2022-11-18T02:45:48.951Z,99.99
2022-11-18T02:46:49.801Z,99.99
2022-11-18T02:47:50.661Z,99.99
2022-11-18T02:48:51.576Z,99.99
2022-11-18T02:49:52.458Z,99.99
2022-11-18T02:50:53.312Z,99.99
2022-11-18T02:51:54.158Z,99.99
2022-11-18T02:52:55.017Z,99.99
2022-11-18T02:53:55.884Z,99.99
2022-11-18T02:54:56.749Z,99.99
2022-11-18T02:55:57.591Z,99.99
2022-11-18T02:56:58.439Z,99.99
2022-11-18T02:57:59.309Z,99.99
2022-11-18T02:59:00.198Z,99.99
2022-11-18T03:00:01.026Z,99.99
2022-11-18T03:01:01.957Z,99.99
2022-11-18T03:02:02.864Z,99.99
2022-11-18T03:03:03.677Z,99.99
2022-11-18T03:04:04.525Z,99.99
2022-11-18T03:05:05.381Z,99.99
2022-11-18T03:06:06.237Z,99.99
2022-11-18T03:07:07.115Z,99.99
2022-11-18T03:08:07.947Z,99.99
2022-11-18T03:09:08.867Z,99.99
2022-11-18T03:10:09.648Z,99.99
2022-11-18T03:11:10.498Z,99.99
2022-11-18T03:12:11.361Z,99.99
2022-11-18T03:13:12.208Z,99.99
2022-11-18T03:14:13.075Z,99.99
2022-11-18T03:15:13.870Z,99.99
2022-11-18T03:16:14.734Z,99.99
2022-11-18T03:17:15.585Z,99.99
2022-11-18T03:18:16.809Z,99.99
2022-11-18T03:19:17.397Z,99.99
2022-11-18T03:20:18.038Z,99.99
2022-11-18T03:21:18.386Z,99.99
2022-11-18T03:22:19.238Z,99.99
2022-11-18T03:23:20.101Z,99.99
2022-11-18T03:24:20.981Z,99.99
2022-11-18T03:25:21.815Z,99.99
2022-11-18T03:26:22.701Z,99.99
2022-11-18T03:27:23.559Z,99.99
2022-11-18T03:28:24.415Z,99.99
2022-11-18T03:29:25.300Z,99.99
2022-11-18T03:30:26.102Z,99.99
2022-11-18T03:31:26.960Z,99.99
2022-11-18T03:32:27.824Z,99.99
2022-11-18T03:33:28.679Z,99.99
2022-11-18T03:34:29.535Z,99.99
2022-11-18T03:35:30.382Z,99.99
2022-11-18T03:36:31.235Z,99.99
2022-11-18T03:37:32.092Z,99.99
2022-11-18T03:38:33.307Z,99.99
2022-11-18T03:39:33.688Z,99.99
2022-11-18T03:40:34.520Z,99.99
2022-11-18T03:41:35.374Z,99.99
2022-11-18T03:42:36.228Z,99.99
2022-11-18T03:43:37.086Z,99.99
2022-11-18T03:44:37.951Z,99.99
2022-11-18T03:45:38.804Z,99.99
2022-11-18T03:46:39.661Z,99.99
2022-11-18T03:47:40.511Z,99.99
2022-11-18T03:48:41.374Z,99.99
2022-11-18T03:49:42.222Z,99.99
2022-11-18T03:50:43.082Z,99.99
2022-11-18T03:51:43.933Z,99.99
2022-11-18T03:52:44.804Z,99.99
2022-11-18T03:53:45.663Z,99.99
2022-11-18T03:54:46.542Z,99.99
2022-11-18T03:55:47.379Z,99.99
2022-11-18T03:56:48.235Z,99.99
2022-11-18T03:57:49.178Z,99.99
2022-11-18T04:00:47.499Z,99.99
2022-11-18T04:01:40.467Z,99.99
2022-11-18T04:02:41.299Z,99.99
2022-11-18T04:03:42.186Z,99.99
2022-11-18T04:04:43.071Z,99.99
2022-11-18T04:05:43.935Z,99.99
2022-11-18T04:06:44.800Z,99.99
2022-11-18T04:07:45.727Z,99.99
2022-11-18T04:08:46.539Z,99.99
2022-11-18T04:09:47.411Z,99.99
2022-11-18T04:10:48.284Z,99.99
2022-11-18T04:11:49.496Z,99.99
2022-11-18T04:12:49.870Z,99.99
2022-11-18T04:13:50.656Z,99.99
2022-11-18T04:14:51.514Z,99.99
2022-11-18T04:15:52.377Z,99.99
2022-11-18T04:16:53.239Z,99.99
2022-11-18T04:17:54.097Z,99.99
2022-11-18T04:18:54.958Z,99.99
2022-11-18T04:19:55.812Z,99.99
2022-11-18T04:20:56.669Z,99.99
2022-11-18T04:21:57.995Z,99.99
2022-11-18T04:22:58.353Z,99.99
2022-11-18T04:23:59.227Z,99.99
2022-11-18T04:25:00.099Z,99.99
2022-11-18T04:26:00.971Z,99.99
2022-11-18T04:27:01.997Z,99.99
2022-11-18T04:28:02.383Z,99.99
2022-11-18T04:29:03.221Z,99.99
2022-11-18T04:30:04.083Z,99.99
2022-11-18T04:31:04.942Z,99.99
2022-11-18T04:32:05.995Z,99.99
2022-11-18T04:33:06.374Z,99.99
2022-11-18T04:34:07.223Z,99.99
2022-11-18T04:35:08.080Z,99.99
2022-11-18T04:36:08.937Z,99.99
2022-11-18T04:37:09.994Z,99.99
2022-11-18T04:38:10.351Z,99.99
2022-11-18T04:39:11.211Z,99.99
2022-11-18T04:40:12.072Z,99.99
2022-11-18T04:41:12.961Z,99.99
2022-11-18T04:42:13.799Z,99.99
2022-11-18T04:43:14.669Z,99.99
2022-11-18T04:44:15.458Z,99.99
2022-11-18T04:45:16.316Z,99.99
2022-11-18T04:46:17.167Z,99.99
2022-11-18T04:47:18.493Z,99.99
2022-11-18T04:48:18.859Z,99.99
2022-11-18T04:49:20.074Z,99.99
2022-11-18T04:50:20.513Z,99.99
2022-11-18T04:51:21.362Z,99.99
2022-11-18T04:52:22.485Z,99.99
2022-11-18T04:53:22.838Z,99.99
2022-11-18T04:54:23.687Z,99.99
2022-11-18T04:55:24.539Z,99.99
2022-11-18T04:56:25.404Z,99.99
2022-11-18T04:57:27.135Z,99.99
2022-11-18T04:58:27.101Z,99.99
2022-11-18T04:59:27.884Z,99.99
2022-11-18T05:00:28.740Z,99.99
2022-11-18T05:01:29.669Z,99.99
2022-11-18T05:02:30.495Z,99.99
2022-11-18T05:03:31.346Z,99.99
2022-11-18T05:04:32.195Z,99.99
2022-11-18T05:05:33.046Z,99.99
2022-11-18T05:06:33.903Z,99.99
2022-11-18T05:07:35.010Z,99.99
2022-11-18T05:08:35.338Z,99.99
2022-11-18T05:09:36.190Z,99.99
2022-11-18T05:10:37.043Z,99.99
2022-11-18T05:11:37.975Z,99.99
2022-11-18T05:12:38.982Z,99.99
2022-11-18T05:13:59.022Z,99.99
2022-11-18T05:14:45.208Z,99.99
2022-11-18T05:15:41.964Z,99.99
2022-11-18T05:16:41.811Z,99.99
2022-11-18T05:17:43.039Z,99.99
2022-11-18T05:18:43.390Z,99.99
2022-11-18T05:19:44.253Z,99.99
2022-11-18T05:20:45.101Z,99.99
2022-11-18T05:21:45.977Z,99.99
2022-11-18T05:22:46.989Z,99.99
2022-11-18T05:23:47.347Z,99.99
2022-11-18T05:24:48.195Z,99.99
2022-11-18T05:25:49.049Z,99.99
2022-11-18T05:26:49.920Z,99.99
2022-11-18T05:27:50.980Z,99.99
2022-11-18T05:28:51.372Z,99.99
2022-11-18T05:29:52.251Z,99.99
2022-11-18T05:30:53.063Z,99.99
2022-11-18T05:31:53.924Z,99.99
2022-11-18T05:32:54.982Z,99.99
2022-11-18T05:33:55.331Z,99.99
2022-11-18T05:34:56.211Z,99.99
2022-11-18T05:35:57.068Z,99.99
2022-11-18T05:36:57.929Z,99.99
2022-11-18T05:37:58.792Z,99.99
2022-11-18T05:38:59.671Z,99.99
2022-11-18T05:40:00.530Z,99.99
2022-11-18T05:41:01.384Z,99.99
2022-11-18T05:42:02.259Z,99.99
2022-11-18T05:43:03.103Z,99.99
2022-11-18T05:44:03.953Z,99.99
2022-11-18T05:45:04.831Z,99.99
2022-11-18T05:46:05.608Z,99.99
2022-11-18T05:47:06.454Z,99.99
2022-11-18T05:48:07.479Z,99.99
2022-11-18T05:49:07.857Z,99.99
2022-11-18T05:50:08.720Z,99.99
2022-11-18T05:51:09.569Z,99.99
2022-11-18T05:52:10.420Z,99.99
2022-11-18T05:53:11.281Z,99.99
2022-11-18T05:54:12.133Z,99.99
2022-11-18T05:55:12.988Z,99.99
2022-11-18T05:56:13.871Z,99.99
2022-11-18T05:57:14.738Z,99.99
2022-11-18T05:58:15.580Z,99.99
2022-11-18T05:59:16.958Z,99.99
2022-11-18T06:00:17.440Z,99.99
2022-11-18T06:01:18.344Z,99.99
2022-11-18T06:02:19.347Z,99.99
2022-11-18T06:03:20.317Z,99.99
2022-11-18T06:04:57.811Z,99.99
2022-11-18T06:05:21.721Z,99.99
2022-11-18T06:06:22.563Z,99.99
2022-11-18T06:07:23.783Z,99.99
2022-11-18T06:08:24.477Z,99.99
2022-11-18T06:09:24.829Z,99.99
2022-11-18T06:10:25.681Z,99.99
2022-11-18T06:11:26.540Z,99.99
2022-11-18T06:12:27.413Z,99.99
2022-11-18T06:13:28.475Z,99.99
2022-11-18T06:14:28.825Z,99.99
2022-11-18T06:15:29.704Z,99.99
2022-11-18T06:16:30.502Z,99.99
2022-11-18T06:17:31.352Z,99.99
2022-11-18T06:18:32.482Z,99.99
2022-11-18T06:19:32.825Z,99.99
2022-11-18T06:20:33.692Z,99.99
2022-11-18T06:21:34.548Z,99.99
2022-11-18T06:22:35.398Z,99.99
2022-11-18T06:23:36.263Z,99.99
2022-11-18T06:24:37.113Z,99.99
2022-11-18T06:25:37.973Z,99.99
2022-11-18T06:26:38.853Z,99.99
2022-11-18T06:27:39.730Z,99.99
2022-11-18T06:28:40.569Z,99.99
2022-11-18T06:29:41.420Z,99.99
2022-11-18T06:30:42.287Z,99.99
2022-11-18T06:31:43.080Z,99.99
2022-11-18T06:32:43.928Z,99.99
2022-11-18T06:33:44.784Z,99.99
2022-11-18T06:34:45.637Z,99.99
2022-11-18T06:35:46.483Z,99.99
2022-11-18T06:36:47.351Z,99.99
2022-11-18T06:37:48.202Z,99.99
2022-11-18T06:38:49.064Z,99.99
2022-11-18T06:39:49.910Z,99.99
2022-11-18T06:40:50.762Z,99.99
2022-11-18T06:41:51.618Z,99.99
2022-11-18T06:42:52.490Z,99.99
2022-11-18T06:43:53.471Z,99.99
2022-11-18T06:44:53.853Z,99.99
2022-11-18T06:45:54.688Z,99.99
2022-11-18T06:46:55.484Z,99.99
2022-11-18T06:47:56.340Z,99.99
2022-11-18T06:48:57.194Z,99.99
2022-11-18T06:49:58.047Z,99.99
2022-11-18T06:50:58.897Z,99.99
2022-11-18T06:51:59.752Z,99.99
2022-11-18T06:53:00.607Z,99.99
2022-11-18T06:54:06.058Z,99.99
2022-11-18T06:55:03.218Z,99.99
2022-11-18T06:56:03.072Z,99.99
2022-11-18T06:57:03.924Z,99.99
2022-11-18T06:58:04.810Z,99.99
2022-11-18T06:59:05.972Z,99.99
2022-11-18T07:00:06.324Z,99.99
2022-11-18T07:01:07.259Z,99.99
2022-11-18T07:02:08.059Z,99.99
2022-11-18T07:03:08.910Z,99.99
2022-11-18T07:04:09.788Z,99.99
2022-11-18T07:05:10.640Z,99.99
2022-11-18T07:06:11.490Z,99.99
2022-11-18T07:07:12.427Z,99.99
2022-11-18T07:08:13.213Z,99.99
2022-11-18T07:09:14.472Z,99.99
2022-11-18T07:10:14.818Z,99.99
2022-11-18T07:11:15.733Z,99.99
2022-11-18T07:12:16.581Z,99.99
2022-11-18T07:13:17.494Z,99.99
2022-11-18T07:14:18.296Z,99.99
2022-11-18T07:15:19.147Z,99.99
2022-11-18T07:16:20.012Z,99.99
2022-11-18T07:17:20.835Z,99.99
2022-11-18T07:18:21.688Z,99.99
2022-11-18T07:19:22.546Z,99.99
2022-11-18T07:20:23.399Z,99.99
2022-11-18T07:21:24.251Z,99.99
2022-11-18T07:22:25.102Z,99.99
2022-11-18T07:23:25.952Z,99.99
2022-11-18T07:24:26.810Z,99.99
2022-11-18T07:25:27.668Z,99.99
2022-11-18T07:26:28.525Z,99.99
2022-11-18T07:27:29.379Z,99.99
2022-11-18T07:28:30.253Z,99.99
2022-11-18T07:29:31.468Z,99.99
2022-11-18T07:30:31.819Z,99.99
2022-11-18T07:31:32.682Z,99.99
2022-11-18T07:32:33.483Z,99.99
2022-11-18T07:33:34.319Z,99.99
2022-11-18T07:34:35.473Z,99.99
2022-11-18T07:35:35.823Z,99.99
2022-11-18T07:36:36.680Z,99.99
2022-11-18T07:37:37.523Z,99.99
2022-11-18T07:38:38.375Z,99.99
2022-11-18T07:39:39.239Z,99.99
2022-11-18T07:40:40.088Z,99.99
2022-11-18T07:41:40.941Z,99.99
2022-11-18T07:42:41.793Z,99.99
2022-11-18T07:43:42.685Z,99.99
2022-11-18T07:44:43.503Z,99.99
2022-11-18T07:45:44.354Z,99.99
2022-11-18T07:46:45.238Z,99.99
2022-11-18T07:47:46.016Z,99.99
2022-11-18T07:48:46.884Z,99.99
2022-11-18T07:49:47.969Z,99.99
2022-11-18T07:50:48.326Z,99.99
2022-11-18T07:51:49.175Z,99.99
2022-11-18T07:52:50.039Z,99.99
2022-11-18T07:53:50.890Z,99.99
2022-11-18T07:54:51.968Z,99.99
2022-11-18T07:55:52.319Z,99.99
2022-11-18T07:56:53.174Z,99.99
2022-11-18T07:57:54.020Z,99.99
2022-11-18T07:58:54.891Z,99.99
2022-11-18T07:59:55.964Z,99.99
2022-11-18T08:00:56.318Z,99.99
2022-11-18T08:01:57.272Z,99.99
2022-11-18T08:02:58.093Z,99.99
2022-11-18T08:03:58.940Z,99.99
2022-11-18T08:04:59.895Z,99.99
2022-11-18T08:06:00.688Z,99.99
2022-11-18T08:07:01.604Z,99.99
2022-11-18T08:08:02.430Z,99.99
2022-11-18T08:09:03.292Z,99.99
2022-11-18T08:10:04.466Z,99.99
2022-11-18T08:11:04.816Z,99.99
2022-11-18T08:12:05.671Z,99.99
2022-11-18T08:13:06.520Z,99.99
2022-11-18T08:14:07.479Z,99.99
2022-11-18T08:15:08.259Z,99.99
2022-11-18T08:16:09.111Z,99.99
2022-11-18T08:17:09.978Z,99.99
2022-11-18T08:18:13.727Z,99.99
2022-11-18T08:19:11.681Z,99.99
2022-11-18T08:20:12.552Z,99.99
2022-11-18T08:21:13.405Z,99.99
2022-11-18T08:22:14.276Z,99.99
2022-11-18T08:23:15.131Z,99.99
2022-11-18T08:24:15.982Z,99.99
2022-11-18T08:25:16.844Z,99.99
2022-11-18T08:26:17.687Z,99.99
2022-11-18T08:27:18.540Z,99.99
2022-11-18T08:28:19.504Z,99.99
2022-11-18T08:29:24.692Z,99.99
2022-11-18T08:30:22.065Z,99.99
2022-11-18T08:31:21.922Z,99.99
2022-11-18T08:32:22.793Z,99.99
2022-11-18T08:33:23.602Z,99.99
2022-11-18T08:34:24.516Z,99.99
2022-11-18T08:35:25.374Z,99.99
2022-11-18T08:36:26.228Z,99.99
2022-11-18T08:37:27.075Z,99.99
2022-11-18T08:38:27.939Z,99.99
2022-11-18T08:39:28.794Z,99.99
2022-11-18T08:40:29.964Z,99.99
2022-11-18T08:41:30.312Z,99.99
2022-11-18T08:42:34.227Z,99.99
2022-11-18T08:43:31.973Z,99.99
2022-11-18T08:44:32.880Z,99.99
2022-11-18T08:45:33.710Z,99.99
2022-11-18T08:46:34.565Z,99.99
2022-11-18T08:47:35.447Z,99.99
2022-11-18T08:48:36.277Z,99.99
2022-11-18T08:49:37.127Z,99.99
2022-11-18T08:50:38.461Z,99.99
2022-11-18T08:51:38.810Z,99.99
2022-11-18T08:52:39.678Z,99.99
2022-11-18T08:53:40.532Z,99.99
2022-11-18T08:54:41.388Z,99.99
2022-11-18T08:55:42.459Z,99.99
2022-11-18T08:56:42.815Z,99.99
2022-11-18T08:57:43.667Z,99.99
2022-11-18T08:58:44.537Z,99.99
2022-11-18T08:59:45.410Z,99.99
2022-11-18T09:00:46.464Z,99.77
2022-11-18T09:01:46.919Z,99.99
2022-11-18T09:02:47.750Z,99.26
2022-11-18T09:03:48.737Z,99.01
2022-11-18T09:04:49.028Z,98.70
2022-11-18T09:05:49.970Z,98.49
2022-11-18T09:06:50.825Z,99.21
2022-11-18T09:07:51.681Z,99.11
2022-11-18T09:08:52.539Z,99.62
2022-11-18T09:09:53.396Z,99.99
2022-11-18T09:10:54.254Z,99.98
2022-11-18T09:11:55.113Z,99.26
2022-11-18T09:13:07.117Z,99.99
2022-11-18T09:15:15.111Z,99.99
2022-11-18T09:15:59.458Z,99.77
2022-11-18T09:16:58.805Z,99.98
2022-11-18T09:17:59.676Z,99.99
2022-11-18T09:19:13.127Z,99.99
2022-11-18T09:20:02.239Z,99.87
2022-11-18T09:21:02.105Z,99.99
2022-11-18T09:22:02.950Z,99.99
2022-11-18T09:23:03.799Z,99.99
2022-11-18T09:24:04.663Z,99.99
2022-11-18T09:25:05.523Z,99.99
2022-11-18T09:26:06.965Z,99.99
2022-11-18T09:27:12.181Z,99.99
2022-11-18T09:28:09.070Z,99.99
2022-11-18T09:29:08.924Z,99.99
2022-11-18T09:30:09.802Z,99.51
2022-11-18T09:31:10.959Z,99.99
2022-11-18T09:32:11.333Z,99.99
2022-11-18T09:33:14.386Z,99.99
2022-11-18T09:34:13.973Z,99.99
2022-11-18T09:35:13.821Z,99.99
2022-11-18T09:36:14.681Z,99.99
2022-11-18T09:37:15.534Z,99.99
2022-11-18T09:38:16.399Z,99.99
2022-11-18T09:39:17.439Z,99.99
2022-11-18T09:40:17.855Z,99.99
2022-11-18T09:41:18.956Z,99.99
2022-11-18T09:42:19.309Z,99.99
2022-11-18T09:43:20.187Z,99.99
2022-11-18T09:44:21.098Z,99.99
2022-11-18T09:45:24.588Z,99.99
2022-11-18T09:46:22.718Z,99.99
2022-11-18T09:47:23.571Z,99.99
2022-11-18T09:48:24.445Z,99.99
2022-11-18T09:49:25.242Z,99.99
2022-11-18T09:51:27.955Z,99.99
2022-11-18T09:52:32.771Z,99.99
2022-11-18T09:53:29.551Z,99.99
2022-11-18T09:54:29.400Z,99.99
2022-11-18T09:55:30.312Z,99.99
2022-11-18T09:56:31.245Z,99.99
2022-11-18T09:57:32.128Z,99.99
2022-11-18T09:58:32.986Z,99.99
2022-11-18T09:59:33.830Z,99.99
2022-11-18T10:00:34.763Z,99.99
2022-11-18T10:01:36.002Z,99.99
2022-11-18T10:02:36.330Z,99.99
2022-11-18T10:03:37.200Z,99.99
2022-11-18T10:04:38.030Z,99.99
2022-11-18T10:05:38.882Z,99.99
2022-11-18T10:06:39.978Z,99.99
2022-11-18T10:07:40.388Z,99.99
2022-11-18T10:08:41.238Z,99.99
2022-11-18T10:09:42.095Z,99.91
2022-11-18T10:10:42.950Z,99.99
2022-11-18T10:11:49.017Z,99.99
2022-11-18T10:12:45.705Z,99.99
2022-11-18T10:13:45.558Z,99.99
2022-11-18T10:14:46.404Z,99.99
2022-11-18T10:15:47.329Z,99.99
2022-11-18T10:16:48.463Z,99.99
2022-11-18T10:17:48.815Z,99.99
2022-11-18T10:19:05.091Z,99.99
2022-11-18T10:19:51.412Z,99.99
2022-11-18T10:20:51.267Z,99.36
2022-11-18T10:21:52.465Z,99.36
2022-11-18T10:22:52.825Z,99.05
2022-11-18T10:23:53.677Z,99.11
2022-11-18T10:24:54.524Z,97.67
2022-11-18T10:25:55.372Z,99.11
2022-11-18T10:26:56.454Z,96.66
2022-11-18T10:27:56.807Z,97.42
2022-11-18T10:28:57.661Z,97.12
2022-11-18T10:29:58.612Z,97.22
2022-11-18T10:30:59.514Z,98.04
2022-11-18T10:32:03.764Z,97.63
2022-11-18T10:33:01.202Z,97.83
2022-11-18T10:34:02.137Z,96.92
2022-11-18T10:35:02.906Z,98.24
2022-11-18T10:36:03.762Z,97.74
2022-11-18T10:37:04.620Z,97.17
2022-11-18T10:38:08.306Z,96.87
2022-11-18T10:39:06.219Z,96.62
2022-11-18T10:40:07.068Z,96.31
2022-11-18T10:41:07.934Z,96.62
2022-11-18T10:42:08.952Z,95.90
2022-11-18T10:43:09.303Z,94.27
2022-11-18T10:44:12.250Z,96.05
2022-11-18T10:45:10.646Z,96.46
2022-11-18T10:46:11.521Z,97.08
2022-11-18T10:47:12.453Z,96.36
2022-11-18T10:48:13.304Z,94.93
2022-11-18T10:49:14.268Z,95.85
2022-11-18T10:50:15.030Z,95.95
2022-11-18T10:51:15.883Z,94.52
2022-11-18T10:52:16.743Z,94.87
2022-11-18T10:53:17.594Z,95.07
2022-11-18T10:54:18.741Z,96.10
2022-11-18T10:55:19.311Z,95.18
2022-11-18T10:56:20.161Z,95.48
2022-11-18T10:57:21.018Z,95.85
2022-11-18T10:58:21.899Z,94.17
2022-11-18T10:59:22.724Z,93.37
2022-11-18T11:00:23.575Z,91.53
2022-11-18T11:01:24.576Z,92.00
2022-11-18T11:02:24.965Z,90.94
2022-11-18T11:03:25.879Z,90.12
2022-11-18T11:04:26.840Z,90.22
2022-11-18T11:05:27.607Z,90.48
2022-11-18T11:06:28.456Z,90.12
2022-11-18T11:07:29.540Z,90.94
2022-11-18T11:08:37.017Z,90.53
2022-11-18T11:09:31.632Z,91.35
2022-11-18T11:10:31.482Z,89.92
2022-11-18T11:11:32.355Z,89.10
2022-11-18T11:12:33.456Z,89.51
2022-11-18T11:13:33.804Z,89.16
2022-11-18T11:14:34.653Z,88.45
2022-11-18T11:15:35.506Z,89.87
2022-11-18T11:16:36.438Z,87.55
2022-11-18T11:17:37.332Z,85.78
2022-11-18T11:18:38.131Z,85.60
2022-11-18T11:19:39.099Z,81.01
2022-11-18T11:20:39.878Z,80.12
2022-11-18T11:21:40.734Z,79.85
2022-11-18T11:22:41.956Z,73.42
2022-11-18T11:23:42.318Z,73.49
2022-11-18T11:24:43.167Z,72.81
2022-11-18T11:28:17.236Z,73.90
2022-11-18T11:28:47.320Z,73.75
2022-11-18T11:29:47.170Z,73.19
2022-11-18T11:30:48.050Z,73.69
2022-11-18T11:31:48.924Z,71.06
2022-11-18T11:32:49.765Z,70.83
2022-11-18T11:33:50.621Z,69.62
2022-11-18T11:34:51.579Z,69.58
2022-11-18T11:35:52.351Z,71.84
2022-11-18T11:36:53.202Z,73.99
2022-11-18T11:37:54.065Z,73.15
2022-11-18T11:38:58.622Z,74.54
2022-11-18T11:39:56.663Z,75.52
2022-11-18T11:40:56.515Z,76.27
2022-11-18T11:41:57.363Z,76.91
2022-11-18T11:42:58.221Z,77.76
2022-11-18T11:43:59.087Z,78.51
2022-11-18T11:44:59.938Z,79.56
2022-11-18T11:46:00.791Z,79.66
2022-11-18T11:47:01.657Z,80.47
2022-11-18T11:48:02.506Z,81.66
2022-11-18T11:49:03.356Z,80.37
2022-11-18T11:50:04.317Z,79.83
2022-11-18T11:51:05.575Z,79.12
2022-11-18T11:52:05.915Z,79.25
2022-11-18T11:53:06.778Z,77.04
2022-11-18T11:54:07.645Z,71.91
2022-11-18T11:55:08.499Z,73.60
2022-11-18T11:56:09.353Z,76.75
2022-11-18T11:57:10.205Z,78.85
2022-11-18T11:58:11.451Z,80.37
2022-11-18T11:59:11.815Z,80.37
2022-11-18T12:00:12.652Z,80.03
2022-11-18T12:01:13.518Z,79.93
2022-11-18T12:02:14.405Z,77.34
2022-11-18T12:03:15.551Z,73.97
2022-11-18T12:04:15.856Z,76.95
2022-11-18T12:05:16.824Z,78.91
2022-11-18T12:06:17.603Z,79.05
2022-11-18T12:07:18.594Z,79.66
2022-11-18T12:08:19.476Z,79.97
2022-11-18T12:09:20.520Z,79.46
2022-11-18T12:10:20.926Z,79.86
2022-11-18T12:11:21.777Z,79.25
2022-11-18T12:12:22.641Z,79.77
2022-11-18T12:13:23.498Z,77.01
2022-11-18T12:14:24.384Z,72.28
2022-11-18T12:15:25.241Z,70.79
2022-11-18T12:16:26.098Z,67.43
2022-11-18T12:17:26.966Z,66.06
2022-11-18T12:18:27.954Z,63.62
2022-11-18T12:19:28.314Z,61.71
2022-11-18T12:20:29.277Z,61.31
2022-11-18T12:21:34.949Z,60.02
2022-11-18T12:22:31.804Z,59.20
2022-11-18T12:23:31.955Z,62.13
2022-11-18T12:24:32.308Z,62.41
2022-11-18T12:25:33.161Z,61.27
2022-11-18T12:26:34.031Z,62.30
2022-11-18T12:27:34.880Z,61.27
2022-11-18T12:28:35.958Z,60.41
2022-11-18T12:29:36.314Z,59.60
2022-11-18T12:30:37.165Z,60.77
2022-11-18T12:31:38.024Z,61.23
2022-11-18T12:32:38.890Z,63.46
2022-11-18T12:33:39.724Z,64.31
2022-11-18T12:34:40.575Z,66.35
2022-11-18T12:35:41.555Z,69.27
2022-11-18T12:36:42.320Z,72.41
2022-11-18T12:37:43.209Z,72.45
2022-11-18T12:38:44.453Z,68.87
2022-11-18T12:39:44.808Z,65.54
2022-11-18T12:40:50.856Z,69.24
2022-11-18T12:41:47.406Z,72.01
2022-11-18T12:42:47.269Z,70.83
2022-11-18T12:43:48.472Z,70.32
2022-11-18T12:44:48.810Z,73.16
2022-11-18T12:45:49.663Z,75.09
2022-11-18T12:46:50.519Z,77.13
2022-11-18T12:47:51.393Z,79.00
2022-11-18T12:48:52.456Z,79.57
2022-11-18T12:49:52.809Z,79.16
2022-11-18T12:50:53.772Z,78.66
2022-11-18T12:51:54.554Z,80.52
2022-11-18T12:52:55.430Z,80.22
2022-11-18T12:53:56.293Z,80.02
2022-11-18T12:54:57.156Z,80.16
2022-11-18T12:55:58.028Z,80.66
2022-11-18T12:56:58.879Z,80.36
2022-11-18T12:57:59.733Z,80.50
2022-11-18T12:59:00.590Z,81.41
2022-11-18T13:00:01.456Z,81.01
2022-11-18T13:01:02.354Z,80.74
2022-11-18T13:02:03.175Z,81.56
2022-11-18T13:03:04.057Z,81.86
2022-11-18T13:04:04.893Z,82.41
2022-11-18T13:05:05.756Z,81.90
2022-11-18T13:06:06.723Z,82.37
2022-11-18T13:07:07.549Z,82.57
2022-11-18T13:08:08.357Z,82.17
2022-11-18T13:09:09.475Z,82.17